sensor_id;sensor_type;location;lat;lon;timestamp;P1;durP1;ratioP1;P2;durP2;ratioP2
30378;SDS011;17168;49.164;9.060;2023-06-10T00:00:18;7.18;;;6.15;;
30378;SDS011;17168;49.164;9.060;2023-06-10T00:02:54;6.20;;;5.60;;
30378;SDS011;17168;49.164;9.060;2023-06-10T00:05:27;6.55;;;5.70;;
30378;SDS011;17168;49.164;9.060;2023-06-10T00:08:01;7.55;;;5.95;;
30378;SDS011;17168;49.164;9.060;2023-06-10T00:10:40;6.75;;;6.05;;
30378;SDS011;17168;49.164;9.060;2023-06-10T00:13:12;6.57;;;5.88;;
30378;SDS011;17168;49.164;9.060;2023-06-10T00:15:45;7.22;;;6.07;;
30378;SDS011;17168;49.164;9.060;2023-06-10T00:18:19;6.80;;;6.10;;
30378;SDS011;17168;49.164;9.060;2023-06-10T00:20:53;6.38;;;5.55;;
30378;SDS011;17168;49.164;9.060;2023-06-10T00:23:26;6.40;;;5.75;;
30378;SDS011;17168;49.164;9.060;2023-06-10T00:26:00;6.22;;;5.63;;
30378;SDS011;17168;49.164;9.060;2023-06-10T00:28:33;5.72;;;4.80;;
30378;SDS011;17168;49.164;9.060;2023-06-10T00:31:05;6.55;;;5.68;;
30378;SDS011;17168;49.164;9.060;2023-06-10T00:33:40;6.10;;;5.50;;
30378;SDS011;17168;49.164;9.060;2023-06-10T00:36:12;7.18;;;6.47;;
30378;SDS011;17168;49.164;9.060;2023-06-10T00:38:44;6.88;;;6.10;;
30378;SDS011;17168;49.164;9.060;2023-06-10T00:41:16;6.40;;;5.80;;
30378;SDS011;17168;49.164;9.060;2023-06-10T00:43:49;6.28;;;5.68;;
30378;SDS011;17168;49.164;9.060;2023-06-10T00:46:21;8.48;;;6.15;;
30378;SDS011;17168;49.164;9.060;2023-06-10T00:48:59;6.53;;;5.57;;
30378;SDS011;17168;49.164;9.060;2023-06-10T00:51:32;6.00;;;5.40;;
30378;SDS011;17168;49.164;9.060;2023-06-10T00:54:04;7.72;;;6.47;;
30378;SDS011;17168;49.164;9.060;2023-06-10T00:56:36;7.47;;;6.78;;
30378;SDS011;17168;49.164;9.060;2023-06-10T00:59:09;6.80;;;5.25;;
30378;SDS011;17168;49.164;9.060;2023-06-10T01:01:41;7.28;;;6.32;;
30378;SDS011;17168;49.164;9.060;2023-06-10T01:04:17;7.53;;;5.72;;
30378;SDS011;17168;49.164;9.060;2023-06-10T01:06:52;6.82;;;5.93;;
30378;SDS011;17168;49.164;9.060;2023-06-10T01:09:32;8.07;;;6.45;;
30378;SDS011;17168;49.164;9.060;2023-06-10T01:12:10;7.32;;;6.55;;
30378;SDS011;17168;49.164;9.060;2023-06-10T01:14:48;6.32;;;5.53;;
30378;SDS011;17168;49.164;9.060;2023-06-10T01:17:22;7.32;;;6.35;;
30378;SDS011;17168;49.164;9.060;2023-06-10T01:19:57;7.22;;;5.85;;
30378;SDS011;17168;49.164;9.060;2023-06-10T01:22:33;7.80;;;5.57;;
30378;SDS011;17168;49.164;9.060;2023-06-10T01:25:08;9.10;;;6.68;;
30378;SDS011;17168;49.164;9.060;2023-06-10T01:27:40;6.88;;;6.00;;
30378;SDS011;17168;49.164;9.060;2023-06-10T01:30:15;7.10;;;6.20;;
30378;SDS011;17168;49.164;9.060;2023-06-10T01:32:52;7.10;;;6.22;;
30378;SDS011;17168;49.164;9.060;2023-06-10T01:35:25;8.63;;;6.03;;
30378;SDS011;17168;49.164;9.060;2023-06-10T01:38:04;7.50;;;5.55;;
30378;SDS011;17168;49.164;9.060;2023-06-10T01:40:37;7.38;;;6.15;;
30378;SDS011;17168;49.164;9.060;2023-06-10T01:43:10;6.63;;;5.80;;
30378;SDS011;17168;49.164;9.060;2023-06-10T01:45:43;6.72;;;5.68;;
30378;SDS011;17168;49.164;9.060;2023-06-10T01:48:16;6.25;;;5.15;;
30378;SDS011;17168;49.164;9.060;2023-06-10T01:50:48;6.82;;;6.13;;
30378;SDS011;17168;49.164;9.060;2023-06-10T01:53:23;6.32;;;5.63;;
30378;SDS011;17168;49.164;9.060;2023-06-10T01:55:56;6.80;;;5.28;;
30378;SDS011;17168;49.164;9.060;2023-06-10T01:58:28;8.10;;;5.70;;
30378;SDS011;17168;49.164;9.060;2023-06-10T02:01:00;6.15;;;5.18;;
30378;SDS011;17168;49.164;9.060;2023-06-10T02:03:32;6.10;;;5.45;;
30378;SDS011;17168;49.164;9.060;2023-06-10T02:06:05;5.45;;;4.75;;
30378;SDS011;17168;49.164;9.060;2023-06-10T02:08:39;6.38;;;5.32;;
30378;SDS011;17168;49.164;9.060;2023-06-10T02:11:12;6.53;;;5.00;;
30378;SDS011;17168;49.164;9.060;2023-06-10T02:13:44;5.68;;;4.47;;
30378;SDS011;17168;49.164;9.060;2023-06-10T02:16:16;5.53;;;4.43;;
30378;SDS011;17168;49.164;9.060;2023-06-10T02:18:48;5.47;;;4.97;;
30378;SDS011;17168;49.164;9.060;2023-06-10T02:21:21;7.88;;;5.15;;
30378;SDS011;17168;49.164;9.060;2023-06-10T02:23:55;5.68;;;4.60;;
30378;SDS011;17168;49.164;9.060;2023-06-10T02:26:28;5.30;;;4.63;;
30378;SDS011;17168;49.164;9.060;2023-06-10T02:29:00;5.20;;;4.60;;
30378;SDS011;17168;49.164;9.060;2023-06-10T02:31:32;7.13;;;5.00;;
30378;SDS011;17168;49.164;9.060;2023-06-10T02:34:07;8.00;;;4.68;;
30378;SDS011;17168;49.164;9.060;2023-06-10T02:36:39;6.22;;;5.03;;
30378;SDS011;17168;49.164;9.060;2023-06-10T02:39:13;5.63;;;4.95;;
30378;SDS011;17168;49.164;9.060;2023-06-10T02:41:46;6.65;;;4.80;;
30378;SDS011;17168;49.164;9.060;2023-06-10T02:44:18;6.13;;;4.70;;
30378;SDS011;17168;49.164;9.060;2023-06-10T02:46:50;8.35;;;4.88;;
30378;SDS011;17168;49.164;9.060;2023-06-10T02:49:23;5.28;;;4.75;;
30378;SDS011;17168;49.164;9.060;2023-06-10T02:51:55;6.53;;;4.82;;
30378;SDS011;17168;49.164;9.060;2023-06-10T02:54:31;6.28;;;4.95;;
30378;SDS011;17168;49.164;9.060;2023-06-10T02:57:03;5.38;;;4.60;;
30378;SDS011;17168;49.164;9.060;2023-06-10T02:59:37;6.32;;;5.32;;
30378;SDS011;17168;49.164;9.060;2023-06-10T03:02:09;5.78;;;5.18;;
30378;SDS011;17168;49.164;9.060;2023-06-10T03:04:42;7.20;;;5.50;;
30378;SDS011;17168;49.164;9.060;2023-06-10T03:07:15;4.90;;;4.28;;
30378;SDS011;17168;49.164;9.060;2023-06-10T03:09:49;6.57;;;5.65;;
30378;SDS011;17168;49.164;9.060;2023-06-10T03:12:22;6.05;;;5.40;;
30378;SDS011;17168;49.164;9.060;2023-06-10T03:14:54;6.68;;;5.18;;
30378;SDS011;17168;49.164;9.060;2023-06-10T03:17:26;6.85;;;5.47;;
30378;SDS011;17168;49.164;9.060;2023-06-10T03:19:58;6.65;;;5.68;;
30378;SDS011;17168;49.164;9.060;2023-06-10T03:22:31;7.05;;;5.50;;
30378;SDS011;17168;49.164;9.060;2023-06-10T03:25:07;7.10;;;5.85;;
30378;SDS011;17168;49.164;9.060;2023-06-10T03:27:46;7.18;;;6.03;;
30378;SDS011;17168;49.164;9.060;2023-06-10T03:30:18;6.50;;;5.60;;
30378;SDS011;17168;49.164;9.060;2023-06-10T03:32:50;6.35;;;5.50;;
30378;SDS011;17168;49.164;9.060;2023-06-10T03:35:23;6.97;;;5.38;;
30378;SDS011;17168;49.164;9.060;2023-06-10T03:37:55;7.40;;;5.78;;
30378;SDS011;17168;49.164;9.060;2023-06-10T03:40:30;7.50;;;5.57;;
30378;SDS011;17168;49.164;9.060;2023-06-10T03:43:03;6.38;;;5.38;;
30378;SDS011;17168;49.164;9.060;2023-06-10T03:45:35;6.68;;;5.97;;
30378;SDS011;17168;49.164;9.060;2023-06-10T03:48:08;6.50;;;5.57;;
30378;SDS011;17168;49.164;9.060;2023-06-10T03:50:40;6.60;;;5.45;;
30378;SDS011;17168;49.164;9.060;2023-06-10T03:53:13;6.78;;;5.63;;
30378;SDS011;17168;49.164;9.060;2023-06-10T03:55:48;7.18;;;6.15;;
30378;SDS011;17168;49.164;9.060;2023-06-10T03:58:20;7.55;;;5.75;;
30378;SDS011;17168;49.164;9.060;2023-06-10T04:00:52;7.13;;;6.00;;
30378;SDS011;17168;49.164;9.060;2023-06-10T04:03:25;9.15;;;6.50;;
30378;SDS011;17168;49.164;9.060;2023-06-10T04:05:57;7.63;;;6.25;;
30378;SDS011;17168;49.164;9.060;2023-06-10T04:08:30;6.53;;;5.78;;
30378;SDS011;17168;49.164;9.060;2023-06-10T04:11:07;6.85;;;6.05;;
30378;SDS011;17168;49.164;9.060;2023-06-10T04:13:39;8.32;;;6.53;;
30378;SDS011;17168;49.164;9.060;2023-06-10T04:16:11;7.20;;;6.50;;
30378;SDS011;17168;49.164;9.060;2023-06-10T04:18:43;8.88;;;7.00;;
30378;SDS011;17168;49.164;9.060;2023-06-10T04:21:15;8.80;;;5.85;;
30378;SDS011;17168;49.164;9.060;2023-06-10T04:23:49;9.15;;;6.70;;
30378;SDS011;17168;49.164;9.060;2023-06-10T04:26:24;9.00;;;6.20;;
30378;SDS011;17168;49.164;9.060;2023-06-10T04:28:57;7.88;;;6.90;;
30378;SDS011;17168;49.164;9.060;2023-06-10T04:31:29;7.80;;;6.20;;
30378;SDS011;17168;49.164;9.060;2023-06-10T04:34:01;7.78;;;5.93;;
30378;SDS011;17168;49.164;9.060;2023-06-10T04:36:33;7.53;;;6.43;;
30378;SDS011;17168;49.164;9.060;2023-06-10T04:39:06;7.80;;;6.70;;
30378;SDS011;17168;49.164;9.060;2023-06-10T04:41:43;7.90;;;6.03;;
30378;SDS011;17168;49.164;9.060;2023-06-10T04:44:15;7.07;;;6.25;;
30378;SDS011;17168;49.164;9.060;2023-06-10T04:46:48;8.05;;;6.93;;
30378;SDS011;17168;49.164;9.060;2023-06-10T04:49:20;7.65;;;6.60;;
30378;SDS011;17168;49.164;9.060;2023-06-10T04:51:52;8.57;;;6.72;;
30378;SDS011;17168;49.164;9.060;2023-06-10T04:54:24;8.85;;;6.55;;
30378;SDS011;17168;49.164;9.060;2023-06-10T04:57:00;8.23;;;6.38;;
30378;SDS011;17168;49.164;9.060;2023-06-10T04:59:32;7.35;;;6.55;;
30378;SDS011;17168;49.164;9.060;2023-06-10T05:02:04;7.40;;;5.68;;
30378;SDS011;17168;49.164;9.060;2023-06-10T05:04:37;8.00;;;6.43;;
30378;SDS011;17168;49.164;9.060;2023-06-10T05:07:09;8.18;;;6.70;;
30378;SDS011;17168;49.164;9.060;2023-06-10T05:09:41;6.72;;;6.03;;
30378;SDS011;17168;49.164;9.060;2023-06-10T05:12:16;6.85;;;6.15;;
30378;SDS011;17168;49.164;9.060;2023-06-10T05:14:48;7.55;;;6.43;;
30378;SDS011;17168;49.164;9.060;2023-06-10T05:17:20;8.85;;;7.20;;
30378;SDS011;17168;49.164;9.060;2023-06-10T05:19:53;9.88;;;7.05;;
30378;SDS011;17168;49.164;9.060;2023-06-10T05:22:25;7.25;;;6.53;;
30378;SDS011;17168;49.164;9.060;2023-06-10T05:24:57;7.35;;;6.28;;
30378;SDS011;17168;49.164;9.060;2023-06-10T05:27:32;7.43;;;6.40;;
30378;SDS011;17168;49.164;9.060;2023-06-10T05:30:05;8.07;;;7.25;;
30378;SDS011;17168;49.164;9.060;2023-06-10T05:32:39;7.38;;;6.57;;
30378;SDS011;17168;49.164;9.060;2023-06-10T05:35:11;8.07;;;6.40;;
30378;SDS011;17168;49.164;9.060;2023-06-10T05:37:43;7.35;;;6.18;;
30378;SDS011;17168;49.164;9.060;2023-06-10T05:40:16;9.27;;;6.55;;
30378;SDS011;17168;49.164;9.060;2023-06-10T05:42:50;7.22;;;6.22;;
30378;SDS011;17168;49.164;9.060;2023-06-10T05:45:23;7.05;;;6.35;;
30378;SDS011;17168;49.164;9.060;2023-06-10T05:47:55;6.60;;;5.88;;
30378;SDS011;17168;49.164;9.060;2023-06-10T05:50:28;7.60;;;5.80;;
30378;SDS011;17168;49.164;9.060;2023-06-10T05:53:00;8.15;;;6.53;;
30378;SDS011;17168;49.164;9.060;2023-06-10T05:55:32;7.80;;;6.05;;
30378;SDS011;17168;49.164;9.060;2023-06-10T05:58:07;6.03;;;5.40;;
30378;SDS011;17168;49.164;9.060;2023-06-10T06:00:40;8.05;;;6.28;;
30378;SDS011;17168;49.164;9.060;2023-06-10T06:03:12;7.15;;;6.45;;
30378;SDS011;17168;49.164;9.060;2023-06-10T06:05:44;6.70;;;5.90;;
30378;SDS011;17168;49.164;9.060;2023-06-10T06:08:17;7.00;;;6.30;;
30378;SDS011;17168;49.164;9.060;2023-06-10T06:10:50;6.28;;;5.68;;
30378;SDS011;17168;49.164;9.060;2023-06-10T06:13:25;8.23;;;6.57;;
30378;SDS011;17168;49.164;9.060;2023-06-10T06:15:57;8.13;;;6.18;;
30378;SDS011;17168;49.164;9.060;2023-06-10T06:18:29;7.05;;;5.80;;
30378;SDS011;17168;49.164;9.060;2023-06-10T06:21:01;6.00;;;5.40;;
30378;SDS011;17168;49.164;9.060;2023-06-10T06:23:34;7.70;;;5.97;;
30378;SDS011;17168;49.164;9.060;2023-06-10T06:26:06;7.30;;;5.82;;
30378;SDS011;17168;49.164;9.060;2023-06-10T06:28:42;7.05;;;5.82;;
30378;SDS011;17168;49.164;9.060;2023-06-10T06:31:14;10.43;;;6.20;;
30378;SDS011;17168;49.164;9.060;2023-06-10T06:33:46;5.57;;;5.07;;
30378;SDS011;17168;49.164;9.060;2023-06-10T06:36:18;6.63;;;5.82;;
30378;SDS011;17168;49.164;9.060;2023-06-10T06:38:50;5.85;;;4.97;;
30378;SDS011;17168;49.164;9.060;2023-06-10T06:41:23;6.68;;;5.85;;
30378;SDS011;17168;49.164;9.060;2023-06-10T06:43:58;6.65;;;5.95;;
30378;SDS011;17168;49.164;9.060;2023-06-10T06:46:33;7.82;;;5.55;;
30378;SDS011;17168;49.164;9.060;2023-06-10T06:49:05;7.65;;;5.75;;
30378;SDS011;17168;49.164;9.060;2023-06-10T06:51:38;6.88;;;5.85;;
30378;SDS011;17168;49.164;9.060;2023-06-10T06:54:10;8.18;;;5.60;;
30378;SDS011;17168;49.164;9.060;2023-06-10T06:56:43;6.13;;;5.20;;
30378;SDS011;17168;49.164;9.060;2023-06-10T06:59:18;7.40;;;5.50;;
30378;SDS011;17168;49.164;9.060;2023-06-10T07:01:53;5.57;;;4.90;;
30378;SDS011;17168;49.164;9.060;2023-06-10T07:04:26;7.65;;;5.78;;
30378;SDS011;17168;49.164;9.060;2023-06-10T07:06:58;6.53;;;5.20;;
30378;SDS011;17168;49.164;9.060;2023-06-10T07:09:30;6.10;;;5.40;;
30378;SDS011;17168;49.164;9.060;2023-06-10T07:12:03;7.18;;;5.63;;
30378;SDS011;17168;49.164;9.060;2023-06-10T07:14:39;5.60;;;4.47;;
30378;SDS011;17168;49.164;9.060;2023-06-10T07:17:11;5.50;;;4.68;;
30378;SDS011;17168;49.164;9.060;2023-06-10T07:19:44;6.90;;;5.15;;
30378;SDS011;17168;49.164;9.060;2023-06-10T07:22:17;7.10;;;4.70;;
30378;SDS011;17168;49.164;9.060;2023-06-10T07:24:49;6.38;;;4.88;;
30378;SDS011;17168;49.164;9.060;2023-06-10T07:27:23;5.65;;;4.72;;
30378;SDS011;17168;49.164;9.060;2023-06-10T07:29:58;6.40;;;4.65;;
30378;SDS011;17168;49.164;9.060;2023-06-10T07:32:32;5.57;;;4.95;;
30378;SDS011;17168;49.164;9.060;2023-06-10T07:35:06;5.03;;;4.43;;
30378;SDS011;17168;49.164;9.060;2023-06-10T07:37:40;6.82;;;6.05;;
30378;SDS011;17168;49.164;9.060;2023-06-10T07:40:12;6.40;;;5.07;;
30378;SDS011;17168;49.164;9.060;2023-06-10T07:42:44;5.75;;;4.88;;
30378;SDS011;17168;49.164;9.060;2023-06-10T07:45:19;6.40;;;5.03;;
30378;SDS011;17168;49.164;9.060;2023-06-10T07:47:51;8.00;;;5.97;;
30378;SDS011;17168;49.164;9.060;2023-06-10T07:50:24;6.88;;;5.32;;
30378;SDS011;17168;49.164;9.060;2023-06-10T07:52:56;6.60;;;5.28;;
30378;SDS011;17168;49.164;9.060;2023-06-10T07:55:29;6.85;;;5.32;;
30378;SDS011;17168;49.164;9.060;2023-06-10T07:58:01;6.65;;;5.50;;
30378;SDS011;17168;49.164;9.060;2023-06-10T08:00:37;5.55;;;5.05;;
30378;SDS011;17168;49.164;9.060;2023-06-10T08:03:09;5.68;;;4.97;;
30378;SDS011;17168;49.164;9.060;2023-06-10T08:05:41;5.60;;;4.68;;
30378;SDS011;17168;49.164;9.060;2023-06-10T08:08:13;6.47;;;5.57;;
30378;SDS011;17168;49.164;9.060;2023-06-10T08:10:46;6.78;;;5.10;;
30378;SDS011;17168;49.164;9.060;2023-06-10T08:13:18;5.80;;;5.22;;
30378;SDS011;17168;49.164;9.060;2023-06-10T08:15:53;5.68;;;4.65;;
30378;SDS011;17168;49.164;9.060;2023-06-10T08:18:26;6.22;;;5.63;;
30378;SDS011;17168;49.164;9.060;2023-06-10T08:20:58;6.97;;;5.80;;
30378;SDS011;17168;49.164;9.060;2023-06-10T08:23:31;6.25;;;5.25;;
30378;SDS011;17168;49.164;9.060;2023-06-10T08:26:03;7.00;;;5.68;;
30378;SDS011;17168;49.164;9.060;2023-06-10T08:28:35;5.90;;;5.30;;
30378;SDS011;17168;49.164;9.060;2023-06-10T08:31:10;7.70;;;6.20;;
30378;SDS011;17168;49.164;9.060;2023-06-10T08:33:42;5.88;;;5.13;;
30378;SDS011;17168;49.164;9.060;2023-06-10T08:36:14;6.45;;;5.82;;
30378;SDS011;17168;49.164;9.060;2023-06-10T08:38:47;6.30;;;5.30;;
30378;SDS011;17168;49.164;9.060;2023-06-10T08:41:19;5.93;;;5.32;;
30378;SDS011;17168;49.164;9.060;2023-06-10T08:43:58;7.82;;;5.70;;
30378;SDS011;17168;49.164;9.060;2023-06-10T08:46:38;6.13;;;5.53;;
30378;SDS011;17168;49.164;9.060;2023-06-10T08:49:16;5.90;;;5.30;;
30378;SDS011;17168;49.164;9.060;2023-06-10T08:51:55;6.00;;;5.43;;
30378;SDS011;17168;49.164;9.060;2023-06-10T08:54:32;6.18;;;5.57;;
30378;SDS011;17168;49.164;9.060;2023-06-10T08:57:09;6.85;;;6.15;;
30378;SDS011;17168;49.164;9.060;2023-06-10T08:59:41;6.65;;;5.50;;
30378;SDS011;17168;49.164;9.060;2023-06-10T09:02:16;5.75;;;5.18;;
30378;SDS011;17168;49.164;9.060;2023-06-10T09:04:51;5.85;;;5.25;;
30378;SDS011;17168;49.164;9.060;2023-06-10T09:07:24;7.25;;;5.40;;
30378;SDS011;17168;49.164;9.060;2023-06-10T09:09:57;6.70;;;6.00;;
30378;SDS011;17168;49.164;9.060;2023-06-10T09:12:35;5.93;;;5.32;;
30378;SDS011;17168;49.164;9.060;2023-06-10T09:15:09;6.72;;;5.78;;
30378;SDS011;17168;49.164;9.060;2023-06-10T09:17:46;5.93;;;5.32;;
30378;SDS011;17168;49.164;9.060;2023-06-10T09:20:18;6.10;;;5.40;;
30378;SDS011;17168;49.164;9.060;2023-06-10T09:22:51;6.10;;;5.18;;
30378;SDS011;17168;49.164;9.060;2023-06-10T09:25:33;6.25;;;5.68;;
30378;SDS011;17168;49.164;9.060;2023-06-10T09:28:12;6.80;;;6.20;;
30378;SDS011;17168;49.164;9.060;2023-06-10T09:30:45;9.35;;;5.38;;
30378;SDS011;17168;49.164;9.060;2023-06-10T09:33:20;6.35;;;5.57;;
30378;SDS011;17168;49.164;9.060;2023-06-10T09:35:59;7.63;;;5.68;;
30378;SDS011;17168;49.164;9.060;2023-06-10T09:38:34;5.72;;;5.22;;
30378;SDS011;17168;49.164;9.060;2023-06-10T09:41:06;7.13;;;5.88;;
30378;SDS011;17168;49.164;9.060;2023-06-10T09:43:42;6.32;;;5.63;;
30378;SDS011;17168;49.164;9.060;2023-06-10T09:46:17;6.80;;;6.13;;
30378;SDS011;17168;49.164;9.060;2023-06-10T09:48:52;6.72;;;6.13;;
30378;SDS011;17168;49.164;9.060;2023-06-10T09:51:24;7.03;;;6.00;;
30378;SDS011;17168;49.164;9.060;2023-06-10T09:53:57;6.10;;;5.55;;
30378;SDS011;17168;49.164;9.060;2023-06-10T09:56:34;7.47;;;5.57;;
30378;SDS011;17168;49.164;9.060;2023-06-10T09:59:07;5.57;;;5.05;;
30378;SDS011;17168;49.164;9.060;2023-06-10T10:01:39;5.78;;;5.28;;
30378;SDS011;17168;49.164;9.060;2023-06-10T10:04:14;6.00;;;5.28;;
30378;SDS011;17168;49.164;9.060;2023-06-10T10:06:55;5.90;;;5.40;;
30378;SDS011;17168;49.164;9.060;2023-06-10T10:09:27;6.07;;;5.35;;
30378;SDS011;17168;49.164;9.060;2023-06-10T10:11:59;5.63;;;5.13;;
30378;SDS011;17168;49.164;9.060;2023-06-10T10:14:34;6.10;;;5.10;;
30378;SDS011;17168;49.164;9.060;2023-06-10T10:17:09;5.57;;;4.95;;
30378;SDS011;17168;49.164;9.060;2023-06-10T10:19:46;5.95;;;4.65;;
30378;SDS011;17168;49.164;9.060;2023-06-10T10:24:57;5.68;;;5.18;;
30378;SDS011;17168;49.164;9.060;2023-06-10T10:27:34;5.40;;;4.90;;
30378;SDS011;17168;49.164;9.060;2023-06-10T10:30:12;5.10;;;4.70;;
30378;SDS011;17168;49.164;9.060;2023-06-10T10:32:52;5.28;;;4.78;;
30378;SDS011;17168;49.164;9.060;2023-06-10T10:35:32;5.78;;;4.82;;
30378;SDS011;17168;49.164;9.060;2023-06-10T10:38:05;4.70;;;4.30;;
30378;SDS011;17168;49.164;9.060;2023-06-10T10:40:38;4.78;;;4.30;;
30378;SDS011;17168;49.164;9.060;2023-06-10T10:43:12;5.50;;;5.00;;
30378;SDS011;17168;49.164;9.060;2023-06-10T10:45:45;6.18;;;4.93;;
30378;SDS011;17168;49.164;9.060;2023-06-10T10:48:17;5.78;;;5.18;;
30378;SDS011;17168;49.164;9.060;2023-06-10T10:50:58;4.90;;;4.05;;
30378;SDS011;17168;49.164;9.060;2023-06-10T10:53:30;4.97;;;4.15;;
30378;SDS011;17168;49.164;9.060;2023-06-10T10:56:04;4.40;;;4.00;;
30378;SDS011;17168;49.164;9.060;2023-06-10T10:58:38;6.57;;;4.43;;
30378;SDS011;17168;49.164;9.060;2023-06-10T11:01:11;5.50;;;5.00;;
30378;SDS011;17168;49.164;9.060;2023-06-10T11:03:44;5.88;;;5.30;;
30378;SDS011;17168;49.164;9.060;2023-06-10T11:06:21;5.40;;;4.85;;
30378;SDS011;17168;49.164;9.060;2023-06-10T11:08:54;5.40;;;4.90;;
30378;SDS011;17168;49.164;9.060;2023-06-10T11:14:07;5.80;;;5.30;;
30378;SDS011;17168;49.164;9.060;2023-06-10T11:16:41;6.15;;;5.43;;
30378;SDS011;17168;49.164;9.060;2023-06-10T11:22:08;4.72;;;4.32;;
30378;SDS011;17168;49.164;9.060;2023-06-10T11:24:48;5.60;;;4.53;;
30378;SDS011;17168;49.164;9.060;2023-06-10T11:27:22;5.05;;;4.65;;
30378;SDS011;17168;49.164;9.060;2023-06-10T11:30:17;5.28;;;4.63;;
30378;SDS011;17168;49.164;9.060;2023-06-10T11:32:51;4.60;;;4.15;;
30378;SDS011;17168;49.164;9.060;2023-06-10T11:35:24;6.45;;;4.20;;
30378;SDS011;17168;49.164;9.060;2023-06-10T11:38:00;5.13;;;4.63;;
30378;SDS011;17168;49.164;9.060;2023-06-10T11:40:33;4.57;;;4.18;;
30378;SDS011;17168;49.164;9.060;2023-06-10T11:43:06;5.30;;;4.90;;
30378;SDS011;17168;49.164;9.060;2023-06-10T11:45:40;4.68;;;4.28;;
30378;SDS011;17168;49.164;9.060;2023-06-10T11:48:13;5.03;;;4.57;;
30378;SDS011;17168;49.164;9.060;2023-06-10T11:50:45;5.55;;;5.03;;
30378;SDS011;17168;49.164;9.060;2023-06-10T11:53:20;6.38;;;4.68;;
30378;SDS011;17168;49.164;9.060;2023-06-10T11:55:53;5.80;;;5.18;;
30378;SDS011;17168;49.164;9.060;2023-06-10T11:58:25;5.18;;;4.68;;
30378;SDS011;17168;49.164;9.060;2023-06-10T12:00:58;5.03;;;4.57;;
30378;SDS011;17168;49.164;9.060;2023-06-10T12:03:35;5.10;;;4.30;;
30378;SDS011;17168;49.164;9.060;2023-06-10T12:06:08;5.15;;;4.65;;
30378;SDS011;17168;49.164;9.060;2023-06-10T12:08:43;6.93;;;5.07;;
30378;SDS011;17168;49.164;9.060;2023-06-10T12:11:15;5.53;;;5.03;;
30378;SDS011;17168;49.164;9.060;2023-06-10T12:13:48;5.20;;;4.70;;
30378;SDS011;17168;49.164;9.060;2023-06-10T12:16:22;5.13;;;4.55;;
30378;SDS011;17168;49.164;9.060;2023-06-10T12:19:00;5.82;;;5.43;;
30378;SDS011;17168;49.164;9.060;2023-06-10T12:21:34;6.25;;;4.82;;
30378;SDS011;17168;49.164;9.060;2023-06-10T12:24:11;6.35;;;5.78;;
30378;SDS011;17168;49.164;9.060;2023-06-10T12:26:44;5.60;;;5.13;;
30378;SDS011;17168;49.164;9.060;2023-06-10T12:29:20;5.45;;;5.03;;
30378;SDS011;17168;49.164;9.060;2023-06-10T12:31:55;4.82;;;4.43;;
30378;SDS011;17168;49.164;9.060;2023-06-10T12:34:33;3.97;;;3.50;;
30378;SDS011;17168;49.164;9.060;2023-06-10T12:37:09;4.00;;;3.63;;
30378;SDS011;17168;49.164;9.060;2023-06-10T12:39:53;4.40;;;4.00;;
30378;SDS011;17168;49.164;9.060;2023-06-10T12:42:25;4.90;;;4.43;;
30378;SDS011;17168;49.164;9.060;2023-06-10T12:44:58;4.65;;;4.30;;
30378;SDS011;17168;49.164;9.060;2023-06-10T12:47:33;5.10;;;4.70;;
30378;SDS011;17168;49.164;9.060;2023-06-10T12:50:13;5.07;;;4.43;;
30378;SDS011;17168;49.164;9.060;2023-06-10T12:52:45;4.70;;;4.30;;
30378;SDS011;17168;49.164;9.060;2023-06-10T12:55:20;5.28;;;4.80;;
30378;SDS011;17168;49.164;9.060;2023-06-10T12:57:52;4.43;;;4.13;;
30378;SDS011;17168;49.164;9.060;2023-06-10T13:00:24;4.28;;;3.90;;
30378;SDS011;17168;49.164;9.060;2023-06-10T13:03:01;4.85;;;4.25;;
30378;SDS011;17168;49.164;9.060;2023-06-10T13:05:34;5.15;;;4.75;;
30378;SDS011;17168;49.164;9.060;2023-06-10T13:08:08;4.85;;;4.45;;
30378;SDS011;17168;49.164;9.060;2023-06-10T13:10:46;5.00;;;4.60;;
30378;SDS011;17168;49.164;9.060;2023-06-10T13:13:20;5.00;;;4.60;;
30378;SDS011;17168;49.164;9.060;2023-06-10T13:15:52;5.13;;;4.80;;
30378;SDS011;17168;49.164;9.060;2023-06-10T13:18:24;5.07;;;4.47;;
30378;SDS011;17168;49.164;9.060;2023-06-10T13:20:57;5.35;;;4.95;;
30378;SDS011;17168;49.164;9.060;2023-06-10T13:23:29;4.45;;;4.15;;
30378;SDS011;17168;49.164;9.060;2023-06-10T13:26:05;4.38;;;4.07;;
30378;SDS011;17168;49.164;9.060;2023-06-10T13:28:38;5.50;;;4.45;;
30378;SDS011;17168;49.164;9.060;2023-06-10T13:31:10;5.25;;;3.85;;
30378;SDS011;17168;49.164;9.060;2023-06-10T13:33:42;4.50;;;4.03;;
30378;SDS011;17168;49.164;9.060;2023-06-10T13:36:15;4.28;;;3.90;;
30378;SDS011;17168;49.164;9.060;2023-06-10T13:38:47;4.18;;;3.78;;
30378;SDS011;17168;49.164;9.060;2023-06-10T13:41:22;5.00;;;4.55;;
30378;SDS011;17168;49.164;9.060;2023-06-10T13:43:54;4.78;;;3.70;;
30378;SDS011;17168;49.164;9.060;2023-06-10T13:46:27;4.30;;;4.00;;
30378;SDS011;17168;49.164;9.060;2023-06-10T13:48:59;4.65;;;4.25;;
30378;SDS011;17168;49.164;9.060;2023-06-10T13:51:31;4.85;;;4.45;;
30378;SDS011;17168;49.164;9.060;2023-06-10T13:54:03;3.63;;;3.33;;
30378;SDS011;17168;49.164;9.060;2023-06-10T13:56:39;4.00;;;3.70;;
30378;SDS011;17168;49.164;9.060;2023-06-10T13:59:11;4.75;;;4.43;;
30378;SDS011;17168;49.164;9.060;2023-06-10T14:01:44;4.93;;;4.50;;
30378;SDS011;17168;49.164;9.060;2023-06-10T14:04:16;4.35;;;3.92;;
30378;SDS011;17168;49.164;9.060;2023-06-10T14:06:48;4.60;;;4.20;;
30378;SDS011;17168;49.164;9.060;2023-06-10T14:09:20;4.32;;;4.00;;
30378;SDS011;17168;49.164;9.060;2023-06-10T14:11:56;4.22;;;3.92;;
30378;SDS011;17168;49.164;9.060;2023-06-10T14:14:28;4.55;;;3.90;;
30378;SDS011;17168;49.164;9.060;2023-06-10T14:17:00;5.03;;;4.63;;
30378;SDS011;17168;49.164;9.060;2023-06-10T14:19:33;3.90;;;3.55;;
30378;SDS011;17168;49.164;9.060;2023-06-10T14:22:05;4.25;;;3.88;;
30378;SDS011;17168;49.164;9.060;2023-06-10T14:24:39;5.00;;;4.47;;
30378;SDS011;17168;49.164;9.060;2023-06-10T14:27:13;5.00;;;4.60;;
30378;SDS011;17168;49.164;9.060;2023-06-10T14:29:46;4.47;;;4.18;;
30378;SDS011;17168;49.164;9.060;2023-06-10T14:32:18;4.95;;;4.65;;
30378;SDS011;17168;49.164;9.060;2023-06-10T14:34:51;4.22;;;3.92;;
30378;SDS011;17168;49.164;9.060;2023-06-10T14:37:23;4.85;;;4.55;;
30378;SDS011;17168;49.164;9.060;2023-06-10T14:39:55;4.93;;;4.57;;
30378;SDS011;17168;49.164;9.060;2023-06-10T14:42:30;5.35;;;4.95;;
30378;SDS011;17168;49.164;9.060;2023-06-10T14:45:04;4.45;;;4.15;;
30378;SDS011;17168;49.164;9.060;2023-06-10T14:47:38;4.60;;;4.30;;
30378;SDS011;17168;49.164;9.060;2023-06-10T14:50:10;5.03;;;4.43;;
30378;SDS011;17168;49.164;9.060;2023-06-10T14:52:42;4.40;;;4.00;;
30378;SDS011;17168;49.164;9.060;2023-06-10T14:55:14;4.68;;;4.13;;
30378;SDS011;17168;49.164;9.060;2023-06-10T14:57:50;4.53;;;4.05;;
30378;SDS011;17168;49.164;9.060;2023-06-10T15:00:22;4.47;;;4.13;;
30378;SDS011;17168;49.164;9.060;2023-06-10T15:02:55;4.35;;;4.05;;
30378;SDS011;17168;49.164;9.060;2023-06-10T15:05:29;5.15;;;4.82;;
30378;SDS011;17168;49.164;9.060;2023-06-10T15:08:01;4.60;;;4.30;;
30378;SDS011;17168;49.164;9.060;2023-06-10T15:10:33;4.38;;;3.97;;
30378;SDS011;17168;49.164;9.060;2023-06-10T15:13:08;4.75;;;4.40;;
30378;SDS011;17168;49.164;9.060;2023-06-10T15:15:41;4.65;;;4.25;;
30378;SDS011;17168;49.164;9.060;2023-06-10T15:18:13;4.85;;;4.45;;
30378;SDS011;17168;49.164;9.060;2023-06-10T15:20:45;4.95;;;4.53;;
30378;SDS011;17168;49.164;9.060;2023-06-10T15:23:17;4.50;;;4.18;;
30378;SDS011;17168;49.164;9.060;2023-06-10T15:25:50;3.97;;;3.67;;
30378;SDS011;17168;49.164;9.060;2023-06-10T15:28:24;3.63;;;3.42;;
30378;SDS011;17168;49.164;9.060;2023-06-10T15:30:59;4.18;;;3.88;;
30378;SDS011;17168;49.164;9.060;2023-06-10T15:33:31;4.30;;;4.00;;